Airfield :
LOGIN :

Register | Disclaimer

   EN    FR    IT 

 










Legend :    VFR   Marginal VFR   IFR   Intensive IFR   Very Intensive IFR
Visi :
Ceiling :
>= 8 km
>= 3000ft
5 to 8 km
1000 to 3000 ft
1500m to 5 km
500 to 1000 ft
800 to 1500m
200 to 500 ft
< 800m
< 200 ft
Symbols :   Thunderstorms  Fog  Heavy snow  Heavy precipitations  Wind > 20 kt
SIGMETs :     Misc.  Thunderstorms  Icing  Turbulence  Mountain Waves  Volcanic Ashes






- Airport Elevation : 863 ft
- IATA code : ZAZ


LEZG - Zaragoza Aragon

CURRENT METAR :
  • 190900Z 07004KT 020V110 9999 FEW085 22/18 Q1014

EXPIRED METARs :
  • 190830Z 22001KT 9999 FEW060 22/18 Q1015
  • 190800Z 12006KT 070V160 9999 FEW060 22/18 Q1015
  • 190730Z 09006KT 9999 FEW060 22/18 Q1015
  • 190700Z 09004KT 9999 SCT060 21/18 Q1015
  • 190630Z 10005KT 080V140 9999 BKN060 21/17 Q1015

TAF TAF LEZG
Valid from the 19 at 06:00 until the 20 at 06:00 UTC


190500Z 1906/2006 VRB04KT 9999 FEW045 TX28/1914Z TN19/1906Z
PROB30
TEMPO 1906/1912 4000 TSRA FEW045CB
TEMPO 1912/1918 25015G25KT 3000 TSRA FEW045CB



MET'MAP, your aeronautical weather chart ! - Copyright ORBIFLY December 2007 - Disclaimer

ORBIFLY MET'MAP TEAM :

Programming & Development : Alexandra Zaïnal
Concept & original design : Baudouin d'Aumeries
Assistance for programming : Marc-Olivier Méhu
Technical & hardware support : Manuel Goepfert

Contact : metmap@orbifly.com




SOURCES & CREDITS :

   NOAA